F/V Moorea — FMIT — position and weather

sailwx.info

Track history (hours):
 
Tides and Currents Weather Stations Pressure Air Temp Water Temp Dewpoint Dewpoint Depression Visibility Wind Speed Wind Dir Waves Ship Positions

F/V Moorea

Last reported at 2015-Jul-06 03:31 UTC. Time now 2015-Jul-06 04:57 UTC.
Position N 46°41' W 003°12'.

Length 18 m.

Type: Fishing. MMSI: 228239900.

Date/timePositionNaut miles runAvg speedWind from/ knotsBaromVisibWave heightAir tempDewpointWater temp
2015-Jul-06 03:31N 46°41' W 003°12'14 5.8
2015-Jul-06 01:03N 46°53' W 002°59'14 8.3
2015-Jul-05 23:19N 47°05' W 002°48'7 9.1
2015-Jul-05 22:33N 47°11' W 002°42'9 9.1
2015-Jul-05 21:32N 47°18' W 002°35'  
2015-Jul-03 16:12N 47°18' W 002°31'0 0.3
2015-Jul-03 15:32N 47°18' W 002°31'0 0.2
2015-Jul-03 14:33N 47°18' W 002°31'0 0.0
2015-Jul-03 13:33N 47°18' W 002°31'3 0.5
2015-Jul-03 08:03N 47°21' W 002°31'0 0.5
2015-Jul-03 07:33N 47°21' W 002°31'0 0.0
2015-Jul-02 12:34N 47°21' W 002°31'0 0.0
2015-Jul-02 11:34N 47°21' W 002°31'0 0.0
2015-Jul-02 10:34N 47°21' W 002°31'0 0.0
2015-Jul-02 09:34N 47°21' W 002°31'0 0.0
2015-Jul-02 08:33N 47°21' W 002°31'0 0.0
2015-Jul-02 07:33N 47°21' W 002°31'0 0.0
2015-Jul-02 06:33N 47°21' W 002°31'0 0.0
2015-Jul-01 13:21N 47°21' W 002°31'0 0.0
2015-Jul-01 06:24N 47°21' W 002°31'3 3.5
2015-Jul-01 05:33N 47°18' W 002°31'0 0.0
2015-Jul-01 04:33N 47°18' W 002°31'0 0.1
2015-Jul-01 03:33N 47°18' W 002°31'0 0.0
2015-Jul-01 01:31N 47°18' W 002°31'4 3.8
2015-Jul-01 00:33N 47°16' W 002°36'1010.3
2015-Jun-30 23:33N 47°08' W 002°45'10 9.9
2015-Jun-30 22:33N 47°01' W 002°54'11 9.7
2015-Jun-30 21:24N 46°52' W 003°04'5 6.1
2015-Jun-30 20:32N 46°48' W 003°10'11 2.5
2015-Jun-30 16:19N 46°43' W 003°23'2 0.2
2015-Jun-30 08:06N 46°41' W 003°23'2 3.7
2015-Jun-30 07:33N 46°43' W 003°23'2 2.3
2015-Jun-30 06:33N 46°45' W 003°21'7 7.0
2015-Jun-30 05:33N 46°50' W 003°14'10 9.9
2015-Jun-30 04:33N 46°57' W 003°04'10 9.7
2015-Jun-30 03:33N 47°04' W 002°54'10 9.6
2015-Jun-30 02:33N 47°11' W 002°44'10 9.7
2015-Jun-30 01:33N 47°18' W 002°34'2 2.2
2015-Jun-30 00:31N 47°18' W 002°31'3 3.4
2015-Jun-29 23:33N 47°17' W 002°35'9 9.5
2015-Jun-29 22:33N 47°10' W 002°45'10 9.3
2015-Jun-29 21:30N 47°03' W 002°55'12 9.2
2015-Jun-29 20:09N 46°55' W 003°09'5 8.9
2015-Jun-29 19:32N 46°51' W 003°15'5 4.5
2015-Jun-29 18:28N 46°47' W 003°19'3 3.7
2015-Jun-29 17:33N 46°45' W 003°22'3 3.1
2015-Jun-29 16:33N 46°42' W 003°25'2 2.3
2015-Jun-29 15:33N 46°45' W 003°24'3 3.1
2015-Jun-29 14:32N 46°48' W 003°25'5 3.6
2015-Jun-29 13:04N 46°43' W 003°23'1 2.4
2015-Jun-29 12:33N 46°43' W 003°25'4 3.8
2015-Jun-29 11:32N 46°47' W 003°25'2 1.9
2015-Jun-29 10:34N 46°45' W 003°27'3 3.0
2015-Jun-29 09:33N 46°43' W 003°26'4 3.5
2015-Jun-29 08:33N 46°46' W 003°25'3 3.0
2015-Jun-29 07:32N 46°48' W 003°29'2 1.4
2015-Jun-29 06:18N 46°47' W 003°28'4 3.8
2015-Jun-29 05:21N 46°43' W 003°27'1 1.8
2015-Jun-29 04:33N 46°44' W 003°26'2 2.2
2015-Jun-29 03:33N 46°45' W 003°23'1 1.1
2015-Jun-29 02:30N 46°45' W 003°21'0 0.4
2015-Jun-29 01:33N 46°45' W 003°22'1 0.5
2015-Jun-29 00:33N 46°45' W 003°22'1 0.6
2015-Jun-28 23:33N 46°46' W 003°23'1 0.7
2015-Jun-28 22:33N 46°45' W 003°24'5 5.3
2015-Jun-28 21:33N 46°48' W 003°31'3 2.1
2015-Jun-28 20:21N 46°46' W 003°30'4 2.2
2015-Jun-28 18:32N 46°42' W 003°26'4 3.8
2015-Jun-28 17:33N 46°46' W 003°27'3 3.2
2015-Jun-28 16:32N 46°48' W 003°31'3 2.1
2015-Jun-28 15:18N 46°45' W 003°29'1 0.2
2015-Jun-28 12:27N 46°46' W 003°30'2 0.9
2015-Jun-28 10:12N 46°45' W 003°28'3 1.0
2015-Jun-28 07:20N 46°47' W 003°25'5 5.9
2015-Jun-28 06:33N 46°50' W 003°20'10 9.7
2015-Jun-28 05:33N 46°57' W 003°10'10 9.8
2015-Jun-28 04:33N 47°03' W 002°59'10 9.9
2015-Jun-28 03:33N 47°09' W 002°47'1010.0
2015-Jun-28 02:33N 47°16' W 002°37'4 4.3
2015-Jun-28 01:33N 47°18' W 002°31'1 0.7
2015-Jun-28 00:33N 47°18' W 002°31'8 8.2
2015-Jun-27 23:33N 47°13' W 002°40'10 9.7
2015-Jun-27 22:34N 47°07' W 002°52'10 9.7
2015-Jun-27 21:33N 47°01' W 003°02'10 9.7
2015-Jun-27 20:33N 46°55' W 003°13'7 6.9
2015-Jun-27 19:33N 46°51' W 003°21'4 3.9
2015-Jun-27 18:33N 46°47' W 003°24'4 3.7
2015-Jun-27 17:33N 46°46' W 003°29'2 1.7
2015-Jun-27 16:33N 46°47' W 003°31'4 3.6
2015-Jun-27 15:33N 46°45' W 003°27'2 2.5
2015-Jun-27 14:33N 46°47' W 003°28'2 1.8
2015-Jun-27 13:33N 46°46' W 003°29'5 2.6
2015-Jun-27 11:33N 46°45' W 003°22'4 3.8
2015-Jun-27 10:29N 46°47' W 003°27'5 1.5
2015-Jun-27 07:24N 46°44' W 003°21'4 3.7
2015-Jun-27 06:25N 46°46' W 003°26'3 0.5
2015-Jun-27 01:06N 46°47' W 003°29'4 0.9
2015-Jun-26 20:27N 46°50' W 003°24'2 2.5
2015-Jun-26 19:33N 46°52' W 003°22'3 3.3
2015-Jun-26 18:33N 46°49' W 003°25'3 3.4
2015-Jun-26 17:33N 46°52' W 003°28'2 1.7
2015-Jun-26 16:28N 46°51' W 003°30'3 3.3
2015-Jun-26 15:33N 46°48' W 003°29'4 3.7
2015-Jun-26 14:29N 46°45' W 003°25'2 2.4
2015-Jun-26 13:33N 46°44' W 003°21'4 3.7
2015-Jun-26 12:33N 46°45' W 003°27'3 3.3
2015-Jun-26 11:33N 46°48' W 003°29'4 3.9
2015-Jun-26 10:33N 46°51' W 003°33'4 3.8
2015-Jun-26 09:33N 46°54' W 003°34'2 2.0
2015-Jun-26 08:31N 46°53' W 003°31'4 3.8
2015-Jun-26 07:33N 46°50' W 003°30'3 3.3
2015-Jun-26 06:30N 46°47' W 003°27'4 4.6
2015-Jun-26 05:33N 46°46' W 003°21'11 9.8
2015-Jun-26 04:25N 46°43' W 003°05'9 9.9
2015-Jun-26 03:33N 46°41' W 002°53'  
Track history (hours):
 
Tides and Currents Weather Stations Pressure Air Temp Water Temp Dewpoint Dewpoint Depression Visibility Wind Speed Wind Dir Waves Ship Positions

F/V Moorea

Last reported at 2015-Jul-06 03:31 UTC. Time now 2015-Jul-06 04:57 UTC.
Position N 46°41' W 003°12'.

Length 18 m.

Type: Fishing. MMSI: 228239900.

Date/timePositionNaut miles runAvg speedWind from/ knotsBaromVisibWave heightAir tempDewpointWater temp
2015-Jul-06 03:31N 46°41' W 003°12'14 5.8
2015-Jul-06 01:03N 46°53' W 002°59'14 8.3
2015-Jul-05 23:19N 47°05' W 002°48'7 9.1
2015-Jul-05 22:33N 47°11' W 002°42'9 9.1
2015-Jul-05 21:32N 47°18' W 002°35'  
2015-Jul-03 16:12N 47°18' W 002°31'0 0.3
2015-Jul-03 15:32N 47°18' W 002°31'0 0.2
2015-Jul-03 14:33N 47°18' W 002°31'0 0.0
2015-Jul-03 13:33N 47°18' W 002°31'3 0.5
2015-Jul-03 08:03N 47°21' W 002°31'0 0.5
2015-Jul-03 07:33N 47°21' W 002°31'0 0.0
2015-Jul-02 12:34N 47°21' W 002°31'0 0.0
2015-Jul-02 11:34N 47°21' W 002°31'0 0.0
2015-Jul-02 10:34N 47°21' W 002°31'0 0.0
2015-Jul-02 09:34N 47°21' W 002°31'0 0.0
2015-Jul-02 08:33N 47°21' W 002°31'0 0.0
2015-Jul-02 07:33N 47°21' W 002°31'0 0.0
2015-Jul-02 06:33N 47°21' W 002°31'0 0.0
2015-Jul-01 13:21N 47°21' W 002°31'0 0.0
2015-Jul-01 06:24N 47°21' W 002°31'3 3.5
2015-Jul-01 05:33N 47°18' W 002°31'0 0.0
2015-Jul-01 04:33N 47°18' W 002°31'0 0.1
2015-Jul-01 03:33N 47°18' W 002°31'0 0.0
2015-Jul-01 01:31N 47°18' W 002°31'4 3.8
2015-Jul-01 00:33N 47°16' W 002°36'1010.3
2015-Jun-30 23:33N 47°08' W 002°45'10 9.9
2015-Jun-30 22:33N 47°01' W 002°54'11 9.7
2015-Jun-30 21:24N 46°52' W 003°04'5 6.1
2015-Jun-30 20:32N 46°48' W 003°10'11 2.5
2015-Jun-30 16:19N 46°43' W 003°23'2 0.2
2015-Jun-30 08:06N 46°41' W 003°23'2 3.7
2015-Jun-30 07:33N 46°43' W 003°23'2 2.3
2015-Jun-30 06:33N 46°45' W 003°21'7 7.0
2015-Jun-30 05:33N 46°50' W 003°14'10 9.9
2015-Jun-30 04:33N 46°57' W 003°04'10 9.7
2015-Jun-30 03:33N 47°04' W 002°54'10 9.6
2015-Jun-30 02:33N 47°11' W 002°44'10 9.7
2015-Jun-30 01:33N 47°18' W 002°34'2 2.2
2015-Jun-30 00:31N 47°18' W 002°31'3 3.4
2015-Jun-29 23:33N 47°17' W 002°35'9 9.5
2015-Jun-29 22:33N 47°10' W 002°45'10 9.3
2015-Jun-29 21:30N 47°03' W 002°55'12 9.2
2015-Jun-29 20:09N 46°55' W 003°09'5 8.9
2015-Jun-29 19:32N 46°51' W 003°15'5 4.5
2015-Jun-29 18:28N 46°47' W 003°19'3 3.7
2015-Jun-29 17:33N 46°45' W 003°22'3 3.1
2015-Jun-29 16:33N 46°42' W 003°25'2 2.3
2015-Jun-29 15:33N 46°45' W 003°24'3 3.1
2015-Jun-29 14:32N 46°48' W 003°25'5 3.6
2015-Jun-29 13:04N 46°43' W 003°23'1 2.4
2015-Jun-29 12:33N 46°43' W 003°25'4 3.8
2015-Jun-29 11:32N 46°47' W 003°25'2 1.9
2015-Jun-29 10:34N 46°45' W 003°27'3 3.0
2015-Jun-29 09:33N 46°43' W 003°26'4 3.5
2015-Jun-29 08:33N 46°46' W 003°25'3 3.0
2015-Jun-29 07:32N 46°48' W 003°29'2 1.4
2015-Jun-29 06:18N 46°47' W 003°28'4 3.8
2015-Jun-29 05:21N 46°43' W 003°27'1 1.8
2015-Jun-29 04:33N 46°44' W 003°26'2 2.2
2015-Jun-29 03:33N 46°45' W 003°23'1 1.1
2015-Jun-29 02:30N 46°45' W 003°21'0 0.4
2015-Jun-29 01:33N 46°45' W 003°22'1 0.5
2015-Jun-29 00:33N 46°45' W 003°22'1 0.6
2015-Jun-28 23:33N 46°46' W 003°23'1 0.7
2015-Jun-28 22:33N 46°45' W 003°24'5 5.3
2015-Jun-28 21:33N 46°48' W 003°31'3 2.1
2015-Jun-28 20:21N 46°46' W 003°30'4 2.2
2015-Jun-28 18:32N 46°42' W 003°26'4 3.8
2015-Jun-28 17:33N 46°46' W 003°27'3 3.2
2015-Jun-28 16:32N 46°48' W 003°31'3 2.1
2015-Jun-28 15:18N 46°45' W 003°29'1 0.2
2015-Jun-28 12:27N 46°46' W 003°30'2 0.9
2015-Jun-28 10:12N 46°45' W 003°28'3 1.0
2015-Jun-28 07:20N 46°47' W 003°25'5 5.9
2015-Jun-28 06:33N 46°50' W 003°20'10 9.7
2015-Jun-28 05:33N 46°57' W 003°10'10 9.8
2015-Jun-28 04:33N 47°03' W 002°59'10 9.9
2015-Jun-28 03:33N 47°09' W 002°47'1010.0
2015-Jun-28 02:33N 47°16' W 002°37'4 4.3
2015-Jun-28 01:33N 47°18' W 002°31'1 0.7
2015-Jun-28 00:33N 47°18' W 002°31'8 8.2
2015-Jun-27 23:33N 47°13' W 002°40'10 9.7
2015-Jun-27 22:34N 47°07' W 002°52'10 9.7
2015-Jun-27 21:33N 47°01' W 003°02'10 9.7
2015-Jun-27 20:33N 46°55' W 003°13'7 6.9
2015-Jun-27 19:33N 46°51' W 003°21'4 3.9
2015-Jun-27 18:33N 46°47' W 003°24'4 3.7
2015-Jun-27 17:33N 46°46' W 003°29'2 1.7
2015-Jun-27 16:33N 46°47' W 003°31'4 3.6
2015-Jun-27 15:33N 46°45' W 003°27'2 2.5
2015-Jun-27 14:33N 46°47' W 003°28'2 1.8
2015-Jun-27 13:33N 46°46' W 003°29'5 2.6
2015-Jun-27 11:33N 46°45' W 003°22'4 3.8
2015-Jun-27 10:29N 46°47' W 003°27'5 1.5
2015-Jun-27 07:24N 46°44' W 003°21'4 3.7
2015-Jun-27 06:25N 46°46' W 003°26'3 0.5
2015-Jun-27 01:06N 46°47' W 003°29'4 0.9
2015-Jun-26 20:27N 46°50' W 003°24'2 2.5
2015-Jun-26 19:33N 46°52' W 003°22'3 3.3
2015-Jun-26 18:33N 46°49' W 003°25'3 3.4
2015-Jun-26 17:33N 46°52' W 003°28'2 1.7
2015-Jun-26 16:28N 46°51' W 003°30'3 3.3
2015-Jun-26 15:33N 46°48' W 003°29'4 3.7
2015-Jun-26 14:29N 46°45' W 003°25'2 2.4
2015-Jun-26 13:33N 46°44' W 003°21'4 3.7
2015-Jun-26 12:33N 46°45' W 003°27'3 3.3
2015-Jun-26 11:33N 46°48' W 003°29'4 3.9
2015-Jun-26 10:33N 46°51' W 003°33'4 3.8
2015-Jun-26 09:33N 46°54' W 003°34'2 2.0
2015-Jun-26 08:31N 46°53' W 003°31'4 3.8
2015-Jun-26 07:33N 46°50' W 003°30'3 3.3
2015-Jun-26 06:30N 46°47' W 003°27'4 4.6
2015-Jun-26 05:33N 46°46' W 003°21'11 9.8
2015-Jun-26 04:25N 46°43' W 003°05'9 9.9
2015-Jun-26 03:33N 46°41' W 002°53'  

Dump ship's entire track history